Latest Weather Observations for Launceston

IDT60801

Issued at 8:01 pm EST Friday 4 September 2015 (issued every 30 minutes, with the page automatically refreshed every 10 minutes)

About weather observations | Map of weather stations | Latest weather observations for TAS | Other Formats
Station Details ID: 091237 Name: LAUNCESTON (TI TREE BEND) Lat: -41.42 Lon: 147.12 Height: 5.0 m
Data from the previous 72 hours. | See also: Recent months at Launceston
Date/Time
EST
Temp
°C
App
Temp
°C
Dew
Point
Rel
Hum
%
Delta-T
°C
Wind Press
QNH
hPa
Press
MSL
hPa
Rain
since 9 am
mm
Dir
 
Spd
km/h
Gust
km/h
Spd
kts
Gust
kts
04/08:00pm 9.9 6.7 3.2 63 2.9 WNW 9 15 5 8 - - 0.0
04/07:30pm 10.5 7.7 3.3 61 3.1 NNW 7 11 4 6 - - 0.0
04/07:00pm 10.9 8.1 3.2 59 3.4 WNW 7 13 4 7 - - 0.0
04/06:30pm 11.7 8.1 3.2 56 3.7 NW 11 17 6 9 - - 0.0
04/06:00pm 12.1 8.4 2.6 52 4.1 NNW 11 15 6 8 - - 0.0
04/05:30pm 13.5 9.4 2.1 46 5.0 NW 13 19 7 10 - - 0.0
04/05:00pm 14.7 10.2 1.9 42 5.6 WNW 15 28 8 15 - - 0.0
04/04:30pm 15.4 10.4 1.5 39 6.1 WNW 17 26 9 14 - - 0.0
04/04:00pm 16.3 12.2 2.3 39 6.3 NW 13 32 7 17 - - 0.0
04/03:30pm 16.2 11.0 2.2 39 6.3 WNW 19 30 10 16 - - 0.0
04/03:00pm 16.9 12.5 2.9 39 6.4 WNW 15 26 8 14 - - 0.0
04/02:30pm 16.8 12.1 3.1 40 6.3 WNW 17 32 9 17 - - 0.0
04/02:00pm 15.8 11.1 5.1 49 5.1 NNW 19 26 10 14 - - 0.0
04/01:30pm 15.7 11.0 5.3 50 4.9 NW 19 28 10 15 - - 0.0
04/01:00pm 14.7 10.2 4.4 50 4.8 NNW 17 26 9 14 - - 0.0
04/12:30pm 13.9 9.2 3.4 49 4.7 NNW 17 26 9 14 - - 0.0
04/12:00pm 13.2 7.9 3.0 50 4.5 NNW 20 30 11 16 - - 0.0
04/11:30am 12.8 7.9 4.3 56 3.9 NNW 19 28 10 15 - - 0.0
04/11:00am 12.2 7.9 5.4 63 3.2 NNW 17 26 9 14 - - 0.0
04/10:30am 11.7 7.7 5.1 64 3.0 NNW 15 24 8 13 - - 0.0
04/10:00am 11.1 7.3 6.0 71 2.4 N 15 20 8 11 - - 0.0
04/09:30am 9.9 7.7 6.4 79 1.6 NW 7 11 4 6 - - 0.0
04/09:00am 9.0 6.9 5.6 79 1.5 NW 6 9 3 5 - - 0.0
04/08:30am 6.9 5.6 3.9 81 1.3 CALM 0 2 0 1 - - 0.0
04/08:00am 6.3 4.9 3.3 81 1.3 CALM 0 0 0 0 - - 0.0
04/07:30am 6.0 4.6 3.3 83 1.1 CALM 0 0 0 0 - - 0.0
04/07:00am 5.4 4.0 3.3 86 0.9 CALM 0 0 0 0 - - 0.0
04/06:30am 4.8 3.3 2.8 87 0.8 CALM 0 0 0 0 - - 0.0
04/06:00am 4.8 2.8 2.5 85 0.9 NNE 2 4 1 2 - - 0.0
04/05:30am 5.1 3.5 2.6 84 1.0 CALM 0 0 0 0 - - 0.0
04/05:00am 4.9 3.3 2.4 84 1.0 CALM 0 0 0 0 - - 0.0
04/04:30am 5.0 3.0 2.4 83 1.1 E 2 4 1 2 - - 0.0
04/04:00am 4.8 2.4 2.2 83 1.0 E 4 6 2 3 - - 0.0
04/03:30am 4.7 3.1 2.2 84 1.0 CALM 0 0 0 0 - - 0.0
04/03:00am 4.7 3.1 2.2 84 1.0 CALM 0 0 0 0 - - 0.0
04/02:30am 4.6 3.0 2.3 85 0.9 CALM 0 2 0 1 - - 0.0
04/02:00am 4.7 2.3 2.2 84 1.0 E 4 4 2 2 - - 0.0
04/01:30am 4.5 2.1 2.2 85 0.9 ENE 4 6 2 3 - - 0.0
04/01:00am 4.3 2.7 2.2 86 0.8 CALM 0 0 0 0 - - 0.0
04/12:30am 4.3 1.8 1.8 84 1.0 ENE 4 6 2 3 - - 0.0
04/12:00am 3.5 1.1 1.9 89 0.6 ENE 4 4 2 2 - - 0.0
 
Date/Time
EST
Temp
°C
App
Temp
°C
Dew
Point
Rel
Hum
%
Delta-T
°C
Wind Press
QNH
hPa
Press
MSL
hPa
Rain
since 9 am
mm
Dir
 
Spd
km/h
Gust
km/h
Spd
kts
Gust
kts
03/11:30pm 3.8 1.7 2.0 88 0.7 W 2 4 1 2 - - 0.0
03/11:00pm 4.4 2.3 1.8 83 1.0 NE 2 6 1 3 - - 0.0
03/10:30pm 5.0 3.0 2.2 82 1.1 NE 2 4 1 2 - - 0.0
03/10:00pm 5.1 2.0 1.2 76 1.5 SSW 7 9 4 5 - - 0.0
03/09:30pm 6.6 3.7 1.5 70 2.0 SE 6 7 3 4 - - 0.0
03/09:00pm 5.7 3.5 1.1 72 1.8 WSW 2 4 1 2 - - 0.0
03/08:30pm 7.0 4.5 1.5 68 2.2 E 4 6 2 3 - - 0.0
03/08:00pm 7.8 4.9 1.4 64 2.6 E 6 7 3 4 - - 0.0
03/07:30pm 9.9 6.7 0.5 52 3.8 SSE 7 11 4 6 - - 0.0
03/07:00pm 10.6 6.6 0.6 50 4.1 SSE 11 15 6 8 - - 0.0
03/06:30pm 10.7 7.5 1.0 51 4.0 SSE 7 11 4 6 - - 0.0
03/06:00pm 12.4 8.4 0.2 43 5.0 SE 11 19 6 10 - - 0.0
03/05:30pm 13.1 8.7 0.5 42 5.3 SSE 13 19 7 10 - - 0.0
03/05:00pm 13.8 10.2 0.5 40 5.6 SE 9 19 5 10 - - 0.0
03/04:30pm 14.2 11.1 1.2 41 5.6 SE 7 11 4 6 - - 0.0
03/04:00pm 13.8 9.7 0.1 39 5.7 SE 11 20 6 11 - - 0.0
03/03:30pm 14.1 9.7 0.4 39 5.8 SE 13 19 7 10 - - 0.0
03/03:00pm 15.0 10.3 0.8 38 6.1 SE 15 28 8 15 - - 0.0
03/02:30pm 15.1 10.2 2.3 42 5.7 SE 17 26 9 14 - - 0.0
03/02:00pm 15.1 8.3 0.9 38 6.1 S 26 37 14 20 - - 0.0
03/01:30pm 14.8 8.7 3.0 45 5.3 SSE 24 33 13 18 - - 0.0
03/01:00pm 14.1 9.2 5.2 55 4.2 SE 20 35 11 19 - - 0.0
03/12:30pm 13.8 8.9 4.9 55 4.1 SE 20 30 11 16 - - 0.0
03/12:00pm 13.7 8.7 4.8 55 4.1 SE 20 33 11 18 - - 0.0
03/11:30am 14.4 9.4 6.5 59 3.8 SE 22 37 12 20 - - 0.0
03/11:00am 14.0 9.4 5.6 57 4.0 SE 19 28 10 15 - - 0.0
03/10:30am 13.4 8.2 5.6 59 3.7 SE 22 35 12 19 - - 0.0
03/10:00am 13.4 8.3 5.8 60 3.6 SSE 22 41 12 22 - - 0.0
03/09:30am 12.9 8.4 7.1 68 2.8 SSE 20 32 11 17 - - 0.0
03/09:00am 12.0 8.1 7.3 73 2.3 SE 17 28 9 15 - - 0.0
03/08:30am 10.4 8.4 7.3 81 1.5 SSE 7 15 4 8 - - 0.0
03/08:00am 9.1 7.1 7.1 87 0.9 ESE 7 11 4 6 - - 0.0
03/07:30am 8.2 6.1 6.7 90 0.7 ESE 7 9 4 5 - - 0.0
03/07:00am 8.0 6.0 6.3 89 0.8 E 6 6 3 3 - - 0.0
03/06:30am 8.1 6.0 6.6 90 0.7 S 7 11 4 6 - - 0.0
03/06:00am 7.9 5.8 6.5 91 0.6 SSE 7 11 4 6 - - 0.0
03/05:30am 7.6 5.5 6.5 93 0.5 ESE 7 13 4 7 - - 0.0
03/05:00am 7.2 5.6 6.5 95 0.3 SE 4 9 2 5 - - 0.0
03/04:30am 7.0 6.2 6.4 96 0.3 CALM 0 0 0 0 - - 0.0
03/04:00am 6.7 5.4 6.0 95 0.3 WSW 2 4 1 2 - - 0.0
03/03:30am 6.6 4.5 5.9 95 0.3 SSE 6 9 3 5 - - 0.0
03/03:00am 6.9 5.7 6.3 96 0.3 SSE 2 4 1 2 - - 0.0
03/02:30am 6.2 5.2 5.5 95 0.3 CALM 0 4 0 2 - - 0.0
03/02:00am 7.0 5.8 6.3 95 0.3 ENE 2 4 1 2 - - 0.0
03/01:30am 7.3 6.5 6.6 95 0.3 CALM 0 0 0 0 - - 0.0
03/01:00am 7.1 6.3 6.4 95 0.3 CALM 0 0 0 0 - - 0.0
03/12:30am 7.2 6.4 6.3 94 0.4 CALM 0 0 0 0 - - 0.0
03/12:00am 7.7 7.0 6.8 94 0.4 CALM 0 0 0 0 - - 0.0
 
Date/Time
EST
Temp
°C
App
Temp
°C
Dew
Point
Rel
Hum
%
Delta-T
°C
Wind Press
QNH
hPa
Press
MSL
hPa
Rain
since 9 am
mm
Dir
 
Spd
km/h
Gust
km/h
Spd
kts
Gust
kts
02/11:30pm 7.7 6.9 6.5 92 0.5 CALM 0 0 0 0 - - 0.0
02/11:00pm 8.1 7.0 6.9 92 0.6 NNE 2 4 1 2 - - 0.0
02/10:30pm 8.4 6.9 7.0 91 0.7 NNW 4 6 2 3 - - 0.0
02/10:00pm 8.3 6.5 7.1 92 0.6 NW 6 9 3 5 - - 0.0
02/09:30pm 8.2 6.4 7.0 92 0.6 NW 6 9 3 5 - - 0.0
02/09:00pm 7.8 5.7 6.6 92 0.6 NNW 7 9 4 5 - - 0.0
02/08:30pm 7.8 5.9 6.6 92 0.6 NW 6 7 3 4 - - 0.0
02/08:00pm 7.5 5.3 6.1 91 0.6 NW 7 9 4 5 - - 0.0
02/07:30pm 8.4 6.3 6.5 88 0.9 NNW 7 9 4 5 - - 0.0
02/07:00pm 8.3 6.3 6.4 88 0.9 WNW 6 9 3 5 - - 0.0
02/06:30pm 8.8 6.7 6.8 87 0.9 NNW 7 9 4 5 - - 0.0
02/06:00pm 9.8 7.4 6.9 82 1.4 NW 9 13 5 7 - - 0.0
02/05:30pm 10.8 8.0 7.1 78 1.8 NNW 11 15 6 8 - - 0.0
02/05:00pm 12.1 9.0 7.2 72 2.4 NW 13 19 7 10 - - 0.0
02/04:30pm 12.5 9.4 7.2 70 2.6 NW 13 20 7 11 - - 0.0
02/04:00pm 12.4 8.9 7.3 71 2.5 NW 15 22 8 12 - - 0.0
02/03:30pm 12.6 8.6 6.6 67 2.9 NW 17 24 9 13 - - 0.0
02/03:00pm 12.8 9.3 7.3 69 2.7 NW 15 22 8 12 - - 0.0
02/02:30pm 13.4 9.9 7.0 65 3.1 NW 15 20 8 11 - - 0.0
02/02:00pm 13.2 8.9 7.0 66 3.0 NW 19 26 10 14 - - 0.0
02/01:30pm 13.3 8.8 6.2 62 3.4 NW 19 28 10 15 - - 0.0
02/01:00pm 13.3 10.4 6.4 63 3.3 NW 11 19 6 10 - - 0.0
02/12:30pm 12.6 9.7 6.4 66 2.9 NW 11 17 6 9 - - 0.0
02/12:00pm 11.8 8.7 5.4 65 3.0 NW 11 17 6 9 - - 0.0
02/11:30am 11.6 7.8 5.9 68 2.7 NW 15 20 8 11 - - 0.0
02/11:00am 11.2 7.2 4.7 64 2.9 NW 15 26 8 14 - - 0.0
02/10:30am 10.9 7.5 5.7 70 2.4 NW 13 24 7 13 - - 0.0
02/10:00am 10.2 7.1 5.6 73 2.1 NW 11 17 6 9 - - 0.0
02/09:30am 8.8 6.5 5.9 82 1.3 NNW 7 9 4 5 - - 0.0
02/09:00am 8.2 7.4 6.5 89 0.8 CALM 0 4 0 2 - - 0.0
02/08:30am 5.7 4.5 4.7 93 0.4 CALM 0 0 0 0 - - 0.0
02/08:00am 4.3 2.9 3.7 96 0.2 CALM 0 0 0 0 - - 0.0
02/07:30am 3.7 2.3 3.3 97 0.2 CALM 0 0 0 0 - - 0.0
02/07:00am 3.4 1.9 3.0 97 0.2 CALM 0 2 0 1 - - 0.0
02/06:30am 3.3 1.0 2.9 97 0.2 E 4 6 2 3 - - 0.0
02/06:00am 3.2 1.7 2.9 98 0.1 CALM 0 4 0 2 - - 0.0
02/05:30am 3.0 1.1 2.7 98 0.1 E 2 6 1 3 - - 0.0
02/05:00am 2.9 1.3 2.6 98 0.1 CALM 0 0 0 0 - - 0.0
02/04:30am 2.6 0.2 2.3 98 0.1 ESE 4 6 2 3 - - 0.0
02/04:00am 2.5 0.5 2.1 97 0.2 E 2 4 1 2 - - 0.0
02/03:30am 2.4 0.7 2.1 98 0.1 CALM 0 0 0 0 - - 0.0
02/03:00am 1.5 -0.3 1.1 97 0.2 CALM 0 0 0 0 - - 0.0
02/02:30am 2.5 0.8 2.1 97 0.2 CALM 0 0 0 0 - - 0.0
02/02:00am 2.1 0.3 1.5 96 0.2 CALM 0 0 0 0 - - 0.0
02/01:30am 2.8 1.2 2.2 96 0.2 CALM 0 2 0 1 - - 0.0
02/01:00am 3.2 1.6 2.6 96 0.2 CALM 0 0 0 0 - - 0.0
02/12:30am 3.5 2.0 2.8 95 0.3 CALM 0 0 0 0 - - 0.0
02/12:00am 4.0 2.5 3.1 94 0.4 CALM 0 0 0 0 - - 0.0
 
Date/Time
EST
Temp
°C
App
Temp
°C
Dew
Point
Rel
Hum
%
Delta-T
°C
Wind Press
QNH
hPa
Press
MSL
hPa
Rain
since 9 am
mm
Dir
 
Spd
km/h
Gust
km/h
Spd
kts
Gust
kts
01/11:30pm 4.5 2.7 3.5 93 0.4 NNW 2 2 1 1 - - 0.0
01/11:00pm 5.0 2.9 3.8 92 0.5 W 4 4 2 2 - - 0.0
01/10:30pm 6.2 3.9 5.0 92 0.5 NNW 6 7 3 4 - - 0.0
01/10:00pm 6.6 4.2 5.2 91 0.6 NNW 7 9 4 5 - - 0.0
01/09:30pm 6.8 4.4 5.4 91 0.6 NNW 7 9 4 5 - - 0.0
01/09:00pm 7.0 4.8 5.5 90 0.7 N 6 7 3 4 - - 0.0
01/08:30pm 7.1 5.0 5.6 90 0.7 N 6 7 3 4 - - 0.0

Other Formats:

Comma delimited format used in spreadsheet applications
http://www.bom.gov.au/fwo/IDT60801/IDT60801.94969.axf

JavaScript Object Notation format (JSON) in row-major order
http://www.bom.gov.au/fwo/IDT60801/IDT60801.94969.json